Time;durP1;ratioP1;P1;durP2;ratioP2;P2;SDS_P1;SDS_P2;PMS_P1;PMS_P2;Temp;Humidity;BMP_temperature;BMP_pressure;BME280_temperature;BME280_humidity;BME280_pressure;Samples;Min_cycle;Max_cycle;Signal;HPM_P1;HPM_P2
2023/01/17 00:00:02;;;;;;;1.33;0.50;;;;;;;;;;4783341;30;20059;-74
2023/01/17 00:02:33;;;;;;;0.65;0.50;;;;;;;;;;4784940;29;20059;-75
2023/01/17 00:10:42;;;;;;;2.90;0.90;;;;;;;;;;4782292;29;20416;-76
2023/01/17 00:13:12;;;;;;;3.75;0.43;;;;;;;;;;4781109;30;20135;-74
2023/01/17 00:15:42;;;;;;;4.45;0.60;;;;;;;;;;4781412;30;20059;-75
2023/01/17 00:18:13;;;;;;;2.55;0.65;;;;;;;;;;4782724;30;20051;-73
2023/01/17 00:26:21;;;;;;;2.67;0.40;;;;;;;;;;4783180;30;20055;-78
2023/01/17 01:34:37;;;;;;;1.58;0.50;;;;;;;;;;4781764;30;20082;-74
2023/01/17 01:37:08;;;;;;;1.55;0.40;;;;;;;;;;4781782;30;20051;-74
2023/01/17 01:39:37;;;;;;;2.42;0.70;;;;;;;;;;4780401;29;20062;-74
2023/01/17 01:42:15;;;;;;;2.95;0.52;;;;;;;;;;4781816;30;20058;-74
2023/01/17 01:44:54;;;;;;;2.25;0.60;;;;;;;;;;4781693;30;20047;-75
2023/01/17 01:47:34;;;;;;;2.70;0.60;;;;;;;;;;4782089;30;20051;-73
2023/01/17 01:50:09;;;;;;;3.42;0.60;;;;;;;;;;4781740;30;20055;-74
2023/01/17 01:52:44;;;;;;;2.60;0.50;;;;;;;;;;4780008;30;20055;-74
2023/01/17 01:55:27;;;;;;;2.60;0.40;;;;;;;;;;4781782;30;20066;-74
2023/01/17 01:58:03;;;;;;;0.75;0.50;;;;;;;;;;4781803;30;20051;-74
2023/01/17 02:00:37;;;;;;;2.08;0.55;;;;;;;;;;4781875;30;20068;-75
2023/01/17 02:03:14;;;;;;;2.67;0.57;;;;;;;;;;4781671;30;20055;-75
2023/01/17 02:05:45;;;;;;;3.75;0.50;;;;;;;;;;4782197;29;20538;-78
2023/01/17 02:08:19;;;;;;;3.85;0.57;;;;;;;;;;4782063;30;20055;-74
2023/01/17 02:10:50;;;;;;;1.27;0.50;;;;;;;;;;4781923;30;20066;-74
2023/01/17 02:13:22;;;;;;;4.65;0.60;;;;;;;;;;4781725;29;20058;-75
2023/01/17 02:16:13;;;;;;;3.88;0.50;;;;;;;;;;4782972;30;20059;-75
2023/01/17 02:18:51;;;;;;;2.47;0.63;;;;;;;;;;4784976;30;20401;-74
2023/01/17 02:21:24;;;;;;;1.55;0.50;;;;;;;;;;4785758;30;20051;-74
2023/01/17 02:24:10;;;;;;;3.13;0.57;;;;;;;;;;4784694;29;20062;-75
2023/01/17 02:26:49;;;;;;;3.13;0.60;;;;;;;;;;4785066;30;20415;-75
2023/01/17 02:29:44;;;;;;;2.58;0.52;;;;;;;;;;4783171;30;20063;-75
2023/01/17 02:32:34;;;;;;;0.70;0.40;;;;;;;;;;4784880;30;20071;-74
2023/01/17 02:35:26;;;;;;;1.80;0.38;;;;;;;;;;4784815;30;20051;-74
2023/01/17 02:38:02;;;;;;;4.57;0.60;;;;;;;;;;4784620;30;20062;-75
2023/01/17 02:40:40;;;;;;;1.95;0.40;;;;;;;;;;4784810;30;20055;-75
2023/01/17 02:43:15;;;;;;;3.10;0.40;;;;;;;;;;4784380;30;20051;-76
2023/01/17 02:45:47;;;;;;;1.13;0.55;;;;;;;;;;4784781;30;20047;-75
2023/01/17 02:48:23;;;;;;;3.97;1.00;;;;;;;;;;4784721;30;20432;-76
2023/01/17 02:51:21;;;;;;;2.60;0.70;;;;;;;;;;4784695;30;20058;-74
2023/01/17 02:54:09;;;;;;;6.97;0.70;;;;;;;;;;4784163;30;20542;-74
2023/01/17 02:57:11;;;;;;;2.67;0.50;;;;;;;;;;4784140;30;20055;-76
2023/01/17 03:00:04;;;;;;;3.83;0.90;;;;;;;;;;4784035;30;20059;-76
2023/01/17 03:03:16;;;;;;;2.25;0.70;;;;;;;;;;4784068;30;20395;-76
2023/01/17 03:05:53;;;;;;;2.53;0.50;;;;;;;;;;4775016;30;20063;-74
2023/01/17 03:08:27;;;;;;;1.45;0.40;;;;;;;;;;4784237;30;20051;-73
2023/01/17 03:10:58;;;;;;;1.88;0.35;;;;;;;;;;4783859;30;20051;-73
2023/01/17 03:13:31;;;;;;;2.28;0.60;;;;;;;;;;4784877;30;20066;-73
2023/01/17 03:16:07;;;;;;;1.55;0.50;;;;;;;;;;4784555;30;20511;-74
2023/01/17 03:18:41;;;;;;;1.80;0.65;;;;;;;;;;4783840;30;20060;-74
2023/01/17 03:21:12;;;;;;;1.50;0.60;;;;;;;;;;4783981;29;20520;-74
2023/01/17 03:23:43;;;;;;;1.65;0.47;;;;;;;;;;4782182;30;20059;-74
2023/01/17 03:26:14;;;;;;;1.92;0.73;;;;;;;;;;4782398;29;20071;-74
2023/01/17 03:28:44;;;;;;;2.13;0.60;;;;;;;;;;4783494;29;20055;-74
2023/01/17 03:31:16;;;;;;;1.17;0.60;;;;;;;;;;4783858;30;20059;-73
2023/01/17 03:33:47;;;;;;;1.15;0.50;;;;;;;;;;4783554;30;20051;-73
2023/01/17 03:36:19;;;;;;;2.97;0.60;;;;;;;;;;4783834;30;20059;-73
2023/01/17 03:38:49;;;;;;;2.95;0.70;;;;;;;;;;4784224;30;20435;-74
2023/01/17 03:41:21;;;;;;;1.88;0.60;;;;;;;;;;4783964;30;20059;-73
2023/01/17 03:43:51;;;;;;;2.13;0.60;;;;;;;;;;4768292;30;20512;-73
2023/01/17 03:46:26;;;;;;;0.63;0.40;;;;;;;;;;4782701;29;20063;-73
2023/01/17 03:48:58;;;;;;;1.83;0.50;;;;;;;;;;4783836;30;20055;-73
2023/01/17 03:51:29;;;;;;;6.53;1.17;;;;;;;;;;4783638;30;20060;-74
2023/01/17 03:54:00;;;;;;;4.15;0.65;;;;;;;;;;4783769;30;20778;-73
2023/01/17 03:56:30;;;;;;;1.00;0.60;;;;;;;;;;4783462;30;20491;-74
2023/01/17 03:59:01;;;;;;;4.43;0.70;;;;;;;;;;4783144;30;20051;-73
2023/01/17 04:01:32;;;;;;;3.88;0.80;;;;;;;;;;4783457;30;20055;-73
2023/01/17 04:04:02;;;;;;;3.60;0.90;;;;;;;;;;4783370;30;20055;-75
2023/01/17 04:06:33;;;;;;;3.58;0.73;;;;;;;;;;4783157;30;20047;-74
2023/01/17 04:09:04;;;;;;;2.40;0.50;;;;;;;;;;4783255;30;20043;-74
2023/01/17 04:11:36;;;;;;;1.45;0.80;;;;;;;;;;4783421;30;20059;-74
2023/01/17 04:14:06;;;;;;;3.80;0.70;;;;;;;;;;4782041;30;20059;-74
2023/01/17 04:16:37;;;;;;;3.95;0.60;;;;;;;;;;4783269;30;20043;-74
2023/01/17 04:19:13;;;;;;;2.40;0.80;;;;;;;;;;4782669;30;20392;-75
2023/01/17 04:21:43;;;;;;;2.80;0.80;;;;;;;;;;4782560;30;20063;-74
2023/01/17 04:24:14;;;;;;;3.47;1.20;;;;;;;;;;4782536;30;20055;-73
2023/01/17 04:26:45;;;;;;;1.50;0.63;;;;;;;;;;4783461;30;20062;-73
2023/01/17 04:29:16;;;;;;;1.40;0.50;;;;;;;;;;4782201;30;20082;-74
2023/01/17 04:31:48;;;;;;;1.52;0.80;;;;;;;;;;4781780;30;20082;-74
2023/01/17 04:34:18;;;;;;;1.80;0.57;;;;;;;;;;4782942;30;20055;-73
2023/01/17 04:36:48;;;;;;;2.25;0.88;;;;;;;;;;4782411;29;20062;-74
2023/01/17 04:39:19;;;;;;;5.75;0.70;;;;;;;;;;4782701;30;20047;-74
2023/01/17 04:41:49;;;;;;;2.72;0.90;;;;;;;;;;4782897;30;20545;-73
2023/01/17 04:44:19;;;;;;;1.70;0.70;;;;;;;;;;4782586;30;20500;-76
2023/01/17 04:46:50;;;;;;;2.95;0.60;;;;;;;;;;4781120;30;20051;-76
2023/01/17 04:49:20;;;;;;;1.38;0.70;;;;;;;;;;4782735;29;20066;-74
2023/01/17 04:51:51;;;;;;;19.88;1.00;;;;;;;;;;4782588;30;21035;-74
2023/01/17 04:54:22;;;;;;;2.65;0.88;;;;;;;;;;4782093;30;20051;-74
2023/01/17 04:56:53;;;;;;;1.75;0.75;;;;;;;;;;4782394;30;20055;-76
2023/01/17 04:59:24;;;;;;;3.08;0.70;;;;;;;;;;4782133;30;20056;-74
2023/01/17 05:01:53;;;;;;;2.10;0.63;;;;;;;;;;4782954;30;20073;-74
2023/01/17 05:04:24;;;;;;;5.50;0.95;;;;;;;;;;4781944;30;20416;-73
2023/01/17 05:06:54;;;;;;;3.47;0.75;;;;;;;;;;4782712;30;20051;-73
2023/01/17 05:09:25;;;;;;;2.63;1.00;;;;;;;;;;4782572;30;20039;-74
2023/01/17 05:11:57;;;;;;;1.10;0.60;;;;;;;;;;4782073;30;20063;-74
2023/01/17 05:14:27;;;;;;;2.47;0.60;;;;;;;;;;4782372;30;20047;-74
2023/01/17 05:16:58;;;;;;;3.22;0.80;;;;;;;;;;4781884;30;20054;-73
2023/01/17 05:19:29;;;;;;;1.55;0.70;;;;;;;;;;4781715;29;20055;-74
2023/01/17 05:22:02;;;;;;;1.65;0.70;;;;;;;;;;4781985;30;20081;-74
2023/01/17 05:24:32;;;;;;;2.15;0.68;;;;;;;;;;4781763;30;20063;-74
2023/01/17 05:27:02;;;;;;;4.75;0.90;;;;;;;;;;4781606;30;20889;-75
2023/01/17 05:29:32;;;;;;;1.45;0.70;;;;;;;;;;4781736;30;20055;-74
2023/01/17 05:32:03;;;;;;;1.67;0.60;;;;;;;;;;4781707;30;20070;-74
2023/01/17 05:34:33;;;;;;;2.05;1.10;;;;;;;;;;4781809;30;20059;-74
2023/01/17 05:37:03;;;;;;;2.90;0.88;;;;;;;;;;4780812;30;20411;-74
2023/01/17 05:39:33;;;;;;;4.80;0.82;;;;;;;;;;4781912;30;20082;-73
2023/01/17 05:42:04;;;;;;;0.50;0.50;;;;;;;;;;4781511;30;20054;-73
2023/01/17 05:44:35;;;;;;;2.90;0.95;;;;;;;;;;4781566;30;20058;-74
2023/01/17 05:47:05;;;;;;;4.00;0.82;;;;;;;;;;4779910;29;20504;-73
2023/01/17 05:49:35;;;;;;;4.75;0.88;;;;;;;;;;4781112;30;20047;-74
2023/01/17 05:52:07;;;;;;;3.45;0.93;;;;;;;;;;4781698;30;20056;-74
2023/01/17 05:54:37;;;;;;;1.45;0.90;;;;;;;;;;4781577;29;20427;-74
2023/01/17 05:57:09;;;;;;;0.82;0.77;;;;;;;;;;4781920;30;20055;-74
2023/01/17 05:59:38;;;;;;;3.03;0.68;;;;;;;;;;4781463;29;20047;-74
2023/01/17 06:02:10;;;;;;;3.38;0.90;;;;;;;;;;4780263;30;20055;-74
2023/01/17 06:04:41;;;;;;;2.20;0.95;;;;;;;;;;4782361;30;20493;-73
2023/01/17 06:07:11;;;;;;;3.72;0.80;;;;;;;;;;4781999;30;20051;-73
2023/01/17 06:09:41;;;;;;;1.95;0.90;;;;;;;;;;4781466;29;20051;-74
2023/01/17 06:12:12;;;;;;;2.88;0.63;;;;;;;;;;4781257;30;20527;-74
2023/01/17 06:14:43;;;;;;;1.93;0.83;;;;;;;;;;4781309;30;20051;-73
2023/01/17 06:17:14;;;;;;;1.00;0.70;;;;;;;;;;4781669;30;20738;-73
2023/01/17 06:19:44;;;;;;;1.55;0.70;;;;;;;;;;4781526;29;20059;-73
2023/01/17 06:22:14;;;;;;;1.15;0.70;;;;;;;;;;4781850;29;20508;-74
2023/01/17 06:24:45;;;;;;;1.73;0.88;;;;;;;;;;4781459;30;20090;-74
2023/01/17 06:27:15;;;;;;;2.00;0.80;;;;;;;;;;4781523;30;20500;-74
2023/01/17 06:29:45;;;;;;;4.43;1.00;;;;;;;;;;4781409;30;20055;-74
2023/01/17 06:32:15;;;;;;;3.42;0.90;;;;;;;;;;4781455;30;20416;-74
2023/01/17 06:34:45;;;;;;;3.75;0.77;;;;;;;;;;4780421;30;20056;-74
2023/01/17 06:37:16;;;;;;;1.10;0.85;;;;;;;;;;4781053;30;20063;-74
2023/01/17 06:39:46;;;;;;;3.85;0.80;;;;;;;;;;4781298;30;20051;-74
2023/01/17 06:42:17;;;;;;;0.82;0.80;;;;;;;;;;4781196;30;20058;-74
2023/01/17 06:44:47;;;;;;;2.42;0.77;;;;;;;;;;4781499;30;20055;-74
2023/01/17 06:47:17;;;;;;;1.35;0.60;;;;;;;;;;4779768;30;20048;-74
2023/01/17 06:49:48;;;;;;;0.90;0.68;;;;;;;;;;4781147;29;20235;-74
2023/01/17 06:52:19;;;;;;;2.47;0.90;;;;;;;;;;4781251;30;20063;-74
2023/01/17 06:54:48;;;;;;;2.45;0.60;;;;;;;;;;4781124;30;20051;-74
2023/01/17 06:57:18;;;;;;;5.13;0.88;;;;;;;;;;4781136;29;20447;-74
2023/01/17 06:59:48;;;;;;;1.73;0.80;;;;;;;;;;4782091;29;20059;-74
2023/01/17 07:02:19;;;;;;;2.55;0.90;;;;;;;;;;4784425;30;20066;-74
2023/01/17 07:04:49;;;;;;;1.10;0.80;;;;;;;;;;4784231;29;20050;-74
2023/01/17 07:07:21;;;;;;;0.63;0.60;;;;;;;;;;4784187;30;20055;-74
2023/01/17 07:09:51;;;;;;;2.65;0.70;;;;;;;;;;4784246;29;20059;-74
2023/01/17 07:12:21;;;;;;;2.70;0.77;;;;;;;;;;4784276;30;20843;-74
2023/01/17 07:14:52;;;;;;;2.92;0.70;;;;;;;;;;4783503;30;20051;-74
2023/01/17 07:17:24;;;;;;;1.48;0.93;;;;;;;;;;4783719;30;20054;-74
2023/01/17 07:19:54;;;;;;;3.20;0.95;;;;;;;;;;4784116;30;20051;-74
2023/01/17 07:22:27;;;;;;;2.00;0.73;;;;;;;;;;4782000;30;20081;-74
2023/01/17 07:24:57;;;;;;;3.72;0.90;;;;;;;;;;4783627;30;20443;-74
2023/01/17 07:27:33;;;;;;;1.05;0.60;;;;;;;;;;4784033;30;20055;-74
2023/01/17 07:30:03;;;;;;;2.78;0.88;;;;;;;;;;4785168;29;20062;-74
2023/01/17 07:32:34;;;;;;;1.60;0.90;;;;;;;;;;4783841;30;20051;-73
2023/01/17 07:35:05;;;;;;;0.85;0.70;;;;;;;;;;4783675;30;20047;-73
2023/01/17 07:37:37;;;;;;;4.20;1.08;;;;;;;;;;4783530;30;20063;-74
2023/01/17 07:40:09;;;;;;;3.50;0.60;;;;;;;;;;4784193;30;20542;-74
2023/01/17 07:42:39;;;;;;;1.13;0.90;;;;;;;;;;4783408;30;20059;-74
2023/01/17 07:45:12;;;;;;;2.05;0.80;;;;;;;;;;4781776;30;20435;-74
2023/01/17 07:47:43;;;;;;;4.13;1.13;;;;;;;;;;4783679;30;20067;-74
2023/01/17 07:50:13;;;;;;;3.25;0.90;;;;;;;;;;4783308;30;20054;-74
2023/01/17 07:52:49;;;;;;;1.08;0.90;;;;;;;;;;4783293;30;20424;-74
2023/01/17 07:55:19;;;;;;;3.20;1.05;;;;;;;;;;4783284;30;20047;-74
2023/01/17 07:57:50;;;;;;;2.63;0.98;;;;;;;;;;4783941;29;20063;-74
2023/01/17 08:00:22;;;;;;;2.90;1.17;;;;;;;;;;4783413;30;20123;-74
2023/01/17 08:02:58;;;;;;;2.22;0.60;;;;;;;;;;4783813;30;20051;-74
2023/01/17 08:05:29;;;;;;;1.00;0.70;;;;;;;;;;4783505;30;20639;-74
2023/01/17 08:08:01;;;;;;;1.08;0.65;;;;;;;;;;4783464;30;20055;-74
2023/01/17 08:10:31;;;;;;;2.67;0.90;;;;;;;;;;4782864;30;20051;-74
2023/01/17 08:13:01;;;;;;;1.90;0.90;;;;;;;;;;4782422;29;20056;-74
2023/01/17 08:15:32;;;;;;;0.93;0.80;;;;;;;;;;4783018;30;20062;-74
2023/01/17 08:18:01;;;;;;;3.70;1.00;;;;;;;;;;4782888;29;21063;-73
2023/01/17 08:20:32;;;;;;;2.72;1.00;;;;;;;;;;4783070;30;20047;-74
2023/01/17 08:23:03;;;;;;;1.65;0.70;;;;;;;;;;4780968;29;20055;-74
2023/01/17 08:25:34;;;;;;;0.82;0.65;;;;;;;;;;4781955;30;20059;-74
2023/01/17 08:28:04;;;;;;;2.28;0.88;;;;;;;;;;4783607;30;20074;-74
2023/01/17 08:30:35;;;;;;;3.17;1.23;;;;;;;;;;4781360;30;20059;-73
2023/01/17 08:33:12;;;;;;;1.45;0.70;;;;;;;;;;4783242;30;20048;-74
2023/01/17 08:35:53;;;;;;;1.27;1.00;;;;;;;;;;4782733;30;20047;-74
2023/01/17 08:38:24;;;;;;;5.95;1.00;;;;;;;;;;4782603;30;20051;-74
2023/01/17 08:41:00;;;;;;;2.70;0.80;;;;;;;;;;4782572;29;20063;-74
2023/01/17 08:43:31;;;;;;;1.30;0.90;;;;;;;;;;4782631;30;20051;-75
2023/01/17 08:46:02;;;;;;;0.70;0.70;;;;;;;;;;4782824;30;20055;-75
2023/01/17 08:48:32;;;;;;;2.08;0.70;;;;;;;;;;4782433;30;20059;-74
2023/01/17 08:51:02;;;;;;;2.67;0.70;;;;;;;;;;4782480;30;20051;-75
2023/01/17 08:53:33;;;;;;;2.63;1.00;;;;;;;;;;4782983;30;20852;-76
2023/01/17 08:56:05;;;;;;;1.70;0.77;;;;;;;;;;4782813;30;20409;-74
2023/01/17 08:58:36;;;;;;;4.70;0.90;;;;;;;;;;4782569;30;20054;-75
2023/01/17 09:01:06;;;;;;;3.03;0.73;;;;;;;;;;4780980;30;20059;-74
2023/01/17 09:03:38;;;;;;;1.60;1.02;;;;;;;;;;4782544;30;20066;-75
2023/01/17 09:06:13;;;;;;;15.77;1.30;;;;;;;;;;4781679;30;20059;-75
2023/01/17 09:08:48;;;;;;;5.03;0.73;;;;;;;;;;4781908;30;20058;-75
2023/01/17 09:11:18;;;;;;;1.13;0.60;;;;;;;;;;4783100;30;20051;-76
2023/01/17 09:13:49;;;;;;;1.00;0.85;;;;;;;;;;4782644;29;20519;-76
2023/01/17 09:16:20;;;;;;;5.20;1.27;;;;;;;;;;4782171;30;20523;-75
2023/01/17 09:18:58;;;;;;;6.50;1.60;;;;;;;;;;4780036;30;20527;-75
2023/01/17 09:21:28;;;;;;;8.77;3.08;;;;;;;;;;4782587;30;20825;-74
2023/01/17 09:23:58;;;;;;;5.53;1.90;;;;;;;;;;4781044;29;20416;-75
2023/01/17 09:26:30;;;;;;;7.78;1.35;;;;;;;;;;4780644;30;20063;-74
2023/01/17 09:29:00;;;;;;;4.82;1.33;;;;;;;;;;4781739;30;20051;-76
2023/01/17 09:31:30;;;;;;;2.25;0.93;;;;;;;;;;4781836;30;20114;-75
2023/01/17 09:34:00;;;;;;;1.85;0.90;;;;;;;;;;4781885;29;20514;-76
2023/01/17 09:36:32;;;;;;;5.20;1.15;;;;;;;;;;4781813;30;20065;-75
2023/01/17 09:39:03;;;;;;;3.42;1.00;;;;;;;;;;4781941;30;20066;-75
2023/01/17 09:41:46;;;;;;;3.72;1.27;;;;;;;;;;4781851;30;20419;-76
2023/01/17 09:44:18;;;;;;;5.72;1.13;;;;;;;;;;4781775;29;20055;-75
2023/01/17 09:46:52;;;;;;;2.83;0.98;;;;;;;;;;4782005;30;20074;-75
2023/01/17 09:49:34;;;;;;;6.70;1.90;;;;;;;;;;4781913;30;20056;-78
2023/01/17 09:52:06;;;;;;;3.47;1.40;;;;;;;;;;4781844;30;20530;-78
2023/01/17 09:54:41;;;;;;;2.15;1.30;;;;;;;;;;4781833;30;20058;-76
2023/01/17 09:57:23;;;;;;;1.20;0.90;;;;;;;;;;4781896;30;20051;-75
2023/01/17 10:00:17;;;;;;;2.03;0.60;;;;;;;;;;4781445;30;20055;-75
2023/01/17 10:03:20;;;;;;;5.28;1.30;;;;;;;;;;4764592;30;20072;-75
2023/01/17 10:05:59;;;;;;;4.75;1.13;;;;;;;;;;4781343;30;20507;-75
2023/01/17 10:08:56;;;;;;;2.88;1.20;;;;;;;;;;4781900;30;20051;-75
2023/01/17 10:12:05;;;;;;;3.05;1.35;;;;;;;;;;4781230;30;20059;-75
2023/01/17 10:14:44;;;;;;;5.95;1.10;;;;;;;;;;4748699;30;20506;-74
2023/01/17 10:17:30;;;;;;;7.68;2.60;;;;;;;;;;4782069;30;20059;-75
2023/01/17 10:20:04;;;;;;;3.28;1.17;;;;;;;;;;4781807;30;20407;-75
2023/01/17 10:23:08;;;;;;;12.63;1.85;;;;;;;;;;4796891;29;20416;-75
2023/01/17 10:25:51;;;;;;;3.00;1.00;;;;;;;;;;4799368;29;20051;-76
2023/01/17 10:28:37;;;;;;;1.20;0.70;;;;;;;;;;4799079;29;20081;-76
2023/01/17 10:31:13;;;;;;;3.03;0.73;;;;;;;;;;4799468;29;20054;-77
2023/01/17 10:34:02;;;;;;;3.30;0.60;;;;;;;;;;4798344;29;20515;-79
2023/01/17 10:36:39;;;;;;;4.05;0.70;;;;;;;;;;4802630;29;20530;-74
2023/01/17 10:39:21;;;;;;;3.20;1.20;;;;;;;;;;4802923;29;20498;-75
2023/01/17 10:41:55;;;;;;;1.75;0.68;;;;;;;;;;4801763;29;20507;-78
2023/01/17 10:44:49;;;;;;;3.38;0.65;;;;;;;;;;4803544;29;20502;-78
2023/01/17 10:47:22;;;;;;;6.70;1.02;;;;;;;;;;4801882;29;20419;-78
2023/01/17 10:50:01;;;;;;;6.82;1.02;;;;;;;;;;4803187;29;20051;-77
2023/01/17 10:52:52;;;;;;;3.83;0.80;;;;;;;;;;4802905;29;20062;-76
2023/01/17 10:55:39;;;;;;;4.30;0.93;;;;;;;;;;4802370;29;20046;-78
2023/01/17 10:58:12;;;;;;;1.88;0.85;;;;;;;;;;4802649;29;20065;-76
2023/01/17 11:01:01;;;;;;;2.17;0.50;;;;;;;;;;4798325;29;20051;-75
2023/01/17 11:03:33;;;;;;;4.03;0.93;;;;;;;;;;4784037;30;20052;-76
2023/01/17 11:06:17;;;;;;;6.70;0.70;;;;;;;;;;4784063;30;20051;-78
2023/01/17 11:08:56;;;;;;;5.60;0.70;;;;;;;;;;4784176;30;20051;-76
2023/01/17 11:11:32;;;;;;;6.35;0.65;;;;;;;;;;4784671;30;20054;-77
2023/01/17 11:14:12;;;;;;;8.45;1.20;;;;;;;;;;4784936;30;20054;-76
2023/01/17 11:16:43;;;;;;;5.28;0.80;;;;;;;;;;4784092;30;20055;-76
2023/01/17 11:19:27;;;;;;;4.90;0.60;;;;;;;;;;4784277;30;20063;-80
2023/01/17 11:22:04;;;;;;;2.67;0.43;;;;;;;;;;4784044;30;20035;-77
2023/01/17 11:24:46;;;;;;;5.95;0.57;;;;;;;;;;4783990;30;20070;-75
2023/01/17 11:27:32;;;;;;;0.93;0.43;;;;;;;;;;4782058;30;20059;-77
2023/01/17 11:30:19;;;;;;;3.35;0.50;;;;;;;;;;4783642;30;20051;-76
2023/01/17 11:33:05;;;;;;;2.67;0.43;;;;;;;;;;4782350;30;20079;-78
2023/01/17 11:35:44;;;;;;;2.05;0.47;;;;;;;;;;4782543;30;20063;-78
2023/01/17 11:38:21;;;;;;;2.50;0.45;;;;;;;;;;4782359;30;20058;-80
2023/01/17 11:41:18;;;;;;;2.67;0.40;;;;;;;;;;4783545;30;20058;-77
2023/01/17 11:43:56;;;;;;;0.52;0.40;;;;;;;;;;4783463;30;20424;-78
2023/01/17 11:46:29;;;;;;;2.90;0.57;;;;;;;;;;4780870;29;20063;-77
2023/01/17 11:49:01;;;;;;;4.07;0.82;;;;;;;;;;4784137;30;20035;-77
2023/01/17 11:51:34;;;;;;;1.58;0.47;;;;;;;;;;4783777;30;20059;-78
2023/01/17 11:54:38;;;;;;;1.13;0.30;;;;;;;;;;4783463;30;20047;-77
2023/01/17 11:57:28;;;;;;;3.53;0.68;;;;;;;;;;4782475;30;20547;-78
2023/01/17 12:00:29;;;;;;;2.92;0.60;;;;;;;;;;4784040;30;20400;-76
2023/01/17 12:03:28;;;;;;;1.67;0.43;;;;;;;;;;4783422;30;20055;-75
2023/01/17 12:06:19;;;;;;;3.50;0.60;;;;;;;;;;4783643;29;20480;-80
2023/01/17 12:09:08;;;;;;;2.10;0.30;;;;;;;;;;4783630;30;20060;-79
2023/01/17 12:15:12;;;;;;;1.42;0.63;;;;;;;;;;4783081;30;20483;-76
2023/01/17 12:18:07;;;;;;;1.58;0.60;;;;;;;;;;4783128;30;20415;-78
2023/01/17 12:20:48;;;;;;;2.05;0.25;;;;;;;;;;4783037;30;20047;-77
2023/01/17 12:24:12;;;;;;;1.55;0.68;;;;;;;;;;4782765;29;20415;-78
2023/01/17 12:26:49;;;;;;;1.02;0.40;;;;;;;;;;4762128;30;20149;-77
2023/01/17 12:29:41;;;;;;;0.82;0.30;;;;;;;;;;4782870;30;20059;-76
2023/01/17 12:32:40;;;;;;;1.00;0.40;;;;;;;;;;4783037;30;20059;-76
2023/01/17 12:35:19;;;;;;;106.30;3.40;;;;;;;;;;4781583;30;20522;-80
2023/01/17 12:37:56;;;;;;;2.30;0.40;;;;;;;;;;4783246;30;20051;-79
2023/01/17 12:40:56;;;;;;;5.68;0.65;;;;;;;;;;4790331;30;20047;-78
2023/01/17 12:43:36;;;;;;;2.80;0.50;;;;;;;;;;4782929;30;20047;-78
2023/01/17 12:46:41;;;;;;;2.88;0.55;;;;;;;;;;4782178;30;20062;-79
2023/01/17 12:49:38;;;;;;;5.13;2.88;;;;;;;;;;4782801;30;20507;-78
2023/01/17 12:52:48;;;;;;;2.17;0.60;;;;;;;;;;4782641;30;20538;-81
2023/01/17 12:55:42;;;;;;;5.50;0.73;;;;;;;;;;4782267;30;20062;-77
2023/01/17 12:58:21;;;;;;;3.85;0.80;;;;;;;;;;4776346;30;20070;-78
2023/01/17 13:01:19;;;;;;;1.70;0.70;;;;;;;;;;4782905;30;20050;-78
2023/01/17 13:03:55;;;;;;;5.60;0.93;;;;;;;;;;4782747;30;20052;-79
2023/01/17 13:06:59;;;;;;;3.30;0.57;;;;;;;;;;4783242;30;20051;-77
2023/01/17 13:09:36;;;;;;;2.47;0.70;;;;;;;;;;4781870;29;20058;-78
2023/01/17 13:12:12;;;;;;;5.22;0.98;;;;;;;;;;4782063;30;20504;-78
2023/01/17 13:14:46;;;;;;;5.75;0.90;;;;;;;;;;4782311;30;20055;-77
2023/01/17 13:17:37;;;;;;;1.73;0.50;;;;;;;;;;4781700;30;20471;-78
2023/01/17 13:20:30;;;;;;;5.35;1.55;;;;;;;;;;4782258;30;20052;-77
2023/01/17 13:23:11;;;;;;;2.90;0.70;;;;;;;;;;4782147;30;20063;-79
2023/01/17 13:26:00;;;;;;;0.60;0.50;;;;;;;;;;4782561;30;20500;-79
2023/01/17 13:29:00;;;;;;;2.13;0.55;;;;;;;;;;4782094;30;20066;-78
2023/01/17 13:32:06;;;;;;;0.75;0.40;;;;;;;;;;4780127;30;20074;-77
2023/01/17 13:35:00;;;;;;;2.90;0.63;;;;;;;;;;4768573;29;20067;-77
2023/01/17 13:37:50;;;;;;;2.25;0.50;;;;;;;;;;4782021;30;20534;-76
2023/01/17 13:40:36;;;;;;;2.75;0.52;;;;;;;;;;4781553;30;20059;-76
2023/01/17 13:43:22;;;;;;;2.95;0.57;;;;;;;;;;4781986;30;20062;-79
2023/01/17 13:45:56;;;;;;;4.18;0.60;;;;;;;;;;4782110;30;20063;-78
2023/01/17 13:48:27;;;;;;;1.38;0.80;;;;;;;;;;4781514;30;20419;-78
2023/01/17 13:51:01;;;;;;;2.80;0.80;;;;;;;;;;4781940;30;20404;-78
2023/01/17 13:53:38;;;;;;;3.42;0.63;;;;;;;;;;4781736;30;20047;-78
2023/01/17 13:56:13;;;;;;;2.50;0.70;;;;;;;;;;4781615;30;20062;-77
2023/01/17 13:58:53;;;;;;;4.35;0.70;;;;;;;;;;4781876;30;20059;-78
2023/01/17 14:01:24;;;;;;;2.08;0.60;;;;;;;;;;4782031;30;20515;-78
2023/01/17 14:03:55;;;;;;;3.75;0.60;;;;;;;;;;4782252;30;20051;-78
2023/01/17 14:06:45;;;;;;;4.35;0.60;;;;;;;;;;4780037;30;20051;-79
2023/01/17 14:09:29;;;;;;;3.15;0.88;;;;;;;;;;4782202;29;20052;-81
2023/01/17 14:12:10;;;;;;;3.20;0.70;;;;;;;;;;4785376;30;20059;-78
2023/01/17 14:14:43;;;;;;;2.70;0.98;;;;;;;;;;4785731;30;20519;-77
2023/01/17 14:17:25;;;;;;;3.13;1.13;;;;;;;;;;4785099;30;20539;-76
2023/01/17 14:20:16;;;;;;;4.50;0.90;;;;;;;;;;4785008;30;20066;-77
2023/01/17 14:22:57;;;;;;;3.90;0.75;;;;;;;;;;4784984;30;20530;-78
2023/01/17 14:25:28;;;;;;;;;;;;;;;;;;4767902;30;20047;-78
2023/01/17 14:28:25;;;;;;;2.45;1.00;;;;;;;;;;4767158;30;19929;-76
2023/01/17 14:30:57;;;;;;;4.20;0.90;;;;;;;;;;4763515;30;20064;-76
2023/01/17 14:33:37;;;;;;;2.47;0.60;;;;;;;;;;4766566;30;20508;-77
2023/01/17 14:36:35;;;;;;;2.20;0.93;;;;;;;;;;4767355;30;20054;-77
2023/01/17 14:39:22;;;;;;;1.35;0.75;;;;;;;;;;4750999;30;20111;-79
2023/01/17 14:41:54;;;;;;;3.55;0.80;;;;;;;;;;4767144;30;20055;-80
2023/01/17 14:44:24;;;;;;;1.67;0.82;;;;;;;;;;4766662;30;20890;-76
2023/01/17 14:46:56;;;;;;;4.25;1.33;;;;;;;;;;4766611;30;20048;-78
2023/01/17 14:49:27;;;;;;;9.07;1.17;;;;;;;;;;4767108;30;20067;-80
2023/01/17 14:52:02;;;;;;;4.70;0.80;;;;;;;;;;4766757;30;20051;-75
2023/01/17 14:54:35;;;;;;;1.95;0.80;;;;;;;;;;4766391;30;20055;-77
2023/01/17 14:57:26;;;;;;;3.55;0.70;;;;;;;;;;4766837;30;20052;-78
2023/01/17 15:00:18;;;;;;;2.70;1.00;;;;;;;;;;4766833;30;20086;-77
2023/01/17 15:02:51;;;;;;;3.40;1.10;;;;;;;;;;4764686;30;20078;-78
2023/01/17 15:05:25;;;;;;;2.45;0.73;;;;;;;;;;4766156;30;20063;-78
2023/01/17 15:07:57;;;;;;;2.13;0.90;;;;;;;;;;4766540;30;20511;-78
2023/01/17 15:10:32;;;;;;;1.30;0.70;;;;;;;;;;4766468;30;20057;-78
2023/01/17 15:13:08;;;;;;;3.85;0.95;;;;;;;;;;4766331;30;20062;-75
2023/01/17 15:15:40;;;;;;;2.13;0.70;;;;;;;;;;4766194;30;20055;-78
2023/01/17 15:18:18;;;;;;;1.80;0.75;;;;;;;;;;4766307;30;20172;-75
2023/01/17 15:20:56;;;;;;;5.57;0.80;;;;;;;;;;4766199;30;20056;-77
2023/01/17 15:23:39;;;;;;;3.20;0.98;;;;;;;;;;4771153;30;20426;-78
2023/01/17 15:26:14;;;;;;;4.20;0.90;;;;;;;;;;4784486;30;20051;-82
2023/01/17 15:28:45;;;;;;;3.33;0.88;;;;;;;;;;4783785;30;20055;-77
2023/01/17 15:31:38;;;;;;;5.20;0.85;;;;;;;;;;4784244;30;20048;-79
2023/01/17 15:34:32;;;;;;;3.45;0.80;;;;;;;;;;4783919;30;20058;-77
2023/01/17 15:37:34;;;;;;;3.30;0.93;;;;;;;;;;4783958;30;20052;-78
2023/01/17 15:40:25;;;;;;;2.95;0.93;;;;;;;;;;4784496;30;20059;-73
2023/01/17 15:42:59;;;;;;;3.53;0.70;;;;;;;;;;4783469;30;20047;-74
2023/01/17 15:45:32;;;;;;;4.30;0.85;;;;;;;;;;4784241;30;20055;-77
2023/01/17 15:48:41;;;;;;;2.88;0.75;;;;;;;;;;4783448;30;20066;-77
2023/01/17 15:51:12;;;;;;;4.47;1.20;;;;;;;;;;4784309;30;20500;-76
2023/01/17 15:53:44;;;;;;;5.70;0.90;;;;;;;;;;4784309;30;20051;-76
2023/01/17 15:56:33;;;;;;;6.43;1.00;;;;;;;;;;4783269;30;20515;-75
2023/01/17 15:59:42;;;;;;;1.90;0.85;;;;;;;;;;4783890;30;20054;-78
2023/01/17 16:02:42;;;;;;;3.13;0.80;;;;;;;;;;4782028;30;20063;-76
2023/01/17 16:05:32;;;;;;;5.10;0.90;;;;;;;;;;4781753;30;20515;-76
2023/01/17 16:08:03;;;;;;;4.47;0.70;;;;;;;;;;4783164;30;20559;-76
2023/01/17 16:10:36;;;;;;;3.45;0.90;;;;;;;;;;4783620;30;20063;-75
2023/01/17 16:13:10;;;;;;;4.72;1.10;;;;;;;;;;4783667;30;20055;-75
2023/01/17 16:15:40;;;;;;;3.70;0.98;;;;;;;;;;4783344;30;20055;-77
2023/01/17 16:18:24;;;;;;;5.45;0.85;;;;;;;;;;4783675;30;20423;-78
2023/01/17 16:21:00;;;;;;;2.53;0.60;;;;;;;;;;4768103;30;20063;-76
2023/01/17 16:23:30;;;;;;;1.58;0.80;;;;;;;;;;4783265;29;20504;-76
2023/01/17 16:26:00;;;;;;;4.05;0.90;;;;;;;;;;4783514;29;20346;-76
2023/01/17 16:28:31;;;;;;;2.47;0.80;;;;;;;;;;4782784;30;20051;-74
2023/01/17 16:31:02;;;;;;;2.47;0.85;;;;;;;;;;4782903;30;20051;-77
2023/01/17 16:33:32;;;;;;;4.20;1.13;;;;;;;;;;4782605;29;20047;-76
2023/01/17 16:36:02;;;;;;;3.65;0.80;;;;;;;;;;4782962;29;20066;-76
2023/01/17 16:38:32;;;;;;;2.45;0.80;;;;;;;;;;4782455;30;20051;-76
2023/01/17 16:41:03;;;;;;;7.30;0.90;;;;;;;;;;4783043;29;20074;-75
2023/01/17 16:43:35;;;;;;;6.05;0.82;;;;;;;;;;4782714;30;20052;-74
2023/01/17 16:46:05;;;;;;;5.82;0.95;;;;;;;;;;4783000;29;20055;-75
2023/01/17 16:48:36;;;;;;;3.72;1.10;;;;;;;;;;4783609;30;20411;-75
2023/01/17 16:51:08;;;;;;;6.60;1.00;;;;;;;;;;4781136;30;20082;-78
2023/01/17 16:53:38;;;;;;;6.65;1.10;;;;;;;;;;4782475;30;20059;-75
2023/01/17 16:56:12;;;;;;;2.58;0.80;;;;;;;;;;4782484;30;20051;-75
2023/01/17 16:58:43;;;;;;;3.03;0.77;;;;;;;;;;4782463;30;20059;-76
2023/01/17 17:01:16;;;;;;;4.10;0.98;;;;;;;;;;4782193;29;20523;-75